X  Schlie├čen METAR Luftfahrt Wetterdaten        EBOS Ostend-Bruges International Airport
Temperatur
19°C Temperatur
12°C Taupunkt
64% Feuchtigkeit



Wind
16 MPS
26 KM/S
7 M/S
14 KTS



250°
WSW
Aktuelle Wetterlage

Mostly Sunny Meist sonnig
Luftdruck 1030 (hPa) - 30.41 (inHg)
Sichtweite 6 (Meile) - 10 (Km)
Flughafen
Flughafen Code EBOS

Position : Ostend-Bruges International Airport
Entfernung: 60 (mi)

Metar:
METAR EBOS 121320Z 25014KT 9999 FEW032 19/12 Q1030 NOSIG

Zeit: 12-04-2024 15:20 CEST